sensor_id;sensor_type;location;lat;lon;timestamp;P1;P2;P0
47810;PMS5003;33575;52.600;7.318;2023-07-28T00:02:18;17;17;
47810;PMS5003;33575;52.600;7.318;2023-07-28T00:04:49;18;17;
47810;PMS5003;33575;52.600;7.318;2023-07-28T00:07:20;17;16;
47810;PMS5003;33575;52.600;7.318;2023-07-28T00:09:51;19;18;
47810;PMS5003;33575;52.600;7.318;2023-07-28T00:12:21;21;20;
47810;PMS5003;33575;52.600;7.318;2023-07-28T00:14:52;17;17;
47810;PMS5003;33575;52.600;7.318;2023-07-28T00:17:22;25;24;
47810;PMS5003;33575;52.600;7.318;2023-07-28T00:19:52;16;14;
47810;PMS5003;33575;52.600;7.318;2023-07-28T00:22:23;23;22;
47810;PMS5003;33575;52.600;7.318;2023-07-28T00:24:53;23;20;
47810;PMS5003;33575;52.600;7.318;2023-07-28T00:27:23;18;16;
47810;PMS5003;33575;52.600;7.318;2023-07-28T00:29:54;15;13;
47810;PMS5003;33575;52.600;7.318;2023-07-28T00:32:24;18;14;
47810;PMS5003;33575;52.600;7.318;2023-07-28T00:34:54;15;14;
47810;PMS5003;33575;52.600;7.318;2023-07-28T00:37:25;18;16;
47810;PMS5003;33575;52.600;7.318;2023-07-28T00:39:56;18;17;
47810;PMS5003;33575;52.600;7.318;2023-07-28T00:42:26;15;14;
47810;PMS5003;33575;52.600;7.318;2023-07-28T00:44:57;22;18;
47810;PMS5003;33575;52.600;7.318;2023-07-28T00:47:27;15;14;
47810;PMS5003;33575;52.600;7.318;2023-07-28T00:49:57;16;15;
47810;PMS5003;33575;52.600;7.318;2023-07-28T00:52:28;17;15;
47810;PMS5003;33575;52.600;7.318;2023-07-28T00:54:58;21;17;
47810;PMS5003;33575;52.600;7.318;2023-07-28T00:57:29;18;17;
47810;PMS5003;33575;52.600;7.318;2023-07-28T01:00:00;18;15;
47810;PMS5003;33575;52.600;7.318;2023-07-28T01:02:30;20;17;
47810;PMS5003;33575;52.600;7.318;2023-07-28T01:05:01;16;14;
47810;PMS5003;33575;52.600;7.318;2023-07-28T01:07:33;21;19;
47810;PMS5003;33575;52.600;7.318;2023-07-28T01:10:05;16;15;
47810;PMS5003;33575;52.600;7.318;2023-07-28T01:12:33;17;14;
47810;PMS5003;33575;52.600;7.318;2023-07-28T01:15:05;17;16;
47810;PMS5003;33575;52.600;7.318;2023-07-28T01:17:35;22;21;
47810;PMS5003;33575;52.600;7.318;2023-07-28T01:20:05;16;15;
47810;PMS5003;33575;52.600;7.318;2023-07-28T01:22:43;21;21;
47810;PMS5003;33575;52.600;7.318;2023-07-28T01:25:09;15;14;
47810;PMS5003;33575;52.600;7.318;2023-07-28T01:27:37;19;16;
47810;PMS5003;33575;52.600;7.318;2023-07-28T01:30:08;16;15;
47810;PMS5003;33575;52.600;7.318;2023-07-28T01:32:38;18;17;
47810;PMS5003;33575;52.600;7.318;2023-07-28T01:35:09;19;17;
47810;PMS5003;33575;52.600;7.318;2023-07-28T01:37:39;21;16;
47810;PMS5003;33575;52.600;7.318;2023-07-28T01:40:10;17;12;
47810;PMS5003;33575;52.600;7.318;2023-07-28T01:42:40;18;17;
47810;PMS5003;33575;52.600;7.318;2023-07-28T01:45:10;15;14;
47810;PMS5003;33575;52.600;7.318;2023-07-28T01:47:40;19;17;
47810;PMS5003;33575;52.600;7.318;2023-07-28T01:50:11;17;16;
47810;PMS5003;33575;52.600;7.318;2023-07-28T01:52:42;22;20;
47810;PMS5003;33575;52.600;7.318;2023-07-28T01:55:12;17;17;
47810;PMS5003;33575;52.600;7.318;2023-07-28T02:00:14;16;13;
47810;PMS5003;33575;52.600;7.318;2023-07-28T02:02:44;11;11;
47810;PMS5003;33575;52.600;7.318;2023-07-28T02:05:15;19;17;
47810;PMS5003;33575;52.600;7.318;2023-07-28T02:07:45;18;17;
47810;PMS5003;33575;52.600;7.318;2023-07-28T02:10:15;17;15;
47810;PMS5003;33575;52.600;7.318;2023-07-28T02:12:45;15;15;
47810;PMS5003;33575;52.600;7.318;2023-07-28T02:15:16;15;14;
47810;PMS5003;33575;52.600;7.318;2023-07-28T02:17:46;19;19;
47810;PMS5003;33575;52.600;7.318;2023-07-28T02:20:17;13;13;
47810;PMS5003;33575;52.600;7.318;2023-07-28T02:22:48;16;15;
47810;PMS5003;33575;52.600;7.318;2023-07-28T02:25:19;14;14;
47810;PMS5003;33575;52.600;7.318;2023-07-28T02:27:49;16;16;
47810;PMS5003;33575;52.600;7.318;2023-07-28T02:30:19;16;15;
47810;PMS5003;33575;52.600;7.318;2023-07-28T02:32:50;15;15;
47810;PMS5003;33575;52.600;7.318;2023-07-28T02:35:22;21;21;
47810;PMS5003;33575;52.600;7.318;2023-07-28T02:37:51;16;14;
47810;PMS5003;33575;52.600;7.318;2023-07-28T02:40:22;17;16;
47810;PMS5003;33575;52.600;7.318;2023-07-28T02:42:53;20;18;
47810;PMS5003;33575;52.600;7.318;2023-07-28T02:45:24;21;20;
47810;PMS5003;33575;52.600;7.318;2023-07-28T02:47:54;17;15;
47810;PMS5003;33575;52.600;7.318;2023-07-28T02:50:24;16;15;
47810;PMS5003;33575;52.600;7.318;2023-07-28T02:52:55;17;16;
47810;PMS5003;33575;52.600;7.318;2023-07-28T02:55:26;20;18;
47810;PMS5003;33575;52.600;7.318;2023-07-28T02:57:56;15;15;
47810;PMS5003;33575;52.600;7.318;2023-07-28T03:00:27;15;15;
47810;PMS5003;33575;52.600;7.318;2023-07-28T03:02:58;20;18;
47810;PMS5003;33575;52.600;7.318;2023-07-28T03:05:28;18;16;
47810;PMS5003;33575;52.600;7.318;2023-07-28T03:07:59;12;11;
47810;PMS5003;33575;52.600;7.318;2023-07-28T03:10:29;19;16;
47810;PMS5003;33575;52.600;7.318;2023-07-28T03:12:59;12;12;
47810;PMS5003;33575;52.600;7.318;2023-07-28T03:15:30;16;14;
47810;PMS5003;33575;52.600;7.318;2023-07-28T03:18:00;19;18;
47810;PMS5003;33575;52.600;7.318;2023-07-28T03:20:31;19;17;
47810;PMS5003;33575;52.600;7.318;2023-07-28T03:23:01;17;16;
47810;PMS5003;33575;52.600;7.318;2023-07-28T03:25:32;13;12;
47810;PMS5003;33575;52.600;7.318;2023-07-28T03:28:03;20;18;
47810;PMS5003;33575;52.600;7.318;2023-07-28T03:30:33;18;17;
47810;PMS5003;33575;52.600;7.318;2023-07-28T03:33:03;17;16;
47810;PMS5003;33575;52.600;7.318;2023-07-28T03:35:34;19;18;
47810;PMS5003;33575;52.600;7.318;2023-07-28T03:38:04;21;18;
47810;PMS5003;33575;52.600;7.318;2023-07-28T03:40:34;16;16;
47810;PMS5003;33575;52.600;7.318;2023-07-28T03:43:05;13;13;
47810;PMS5003;33575;52.600;7.318;2023-07-28T03:45:36;17;14;
47810;PMS5003;33575;52.600;7.318;2023-07-28T03:48:06;18;15;
47810;PMS5003;33575;52.600;7.318;2023-07-28T03:50:36;13;13;
47810;PMS5003;33575;52.600;7.318;2023-07-28T03:53:06;19;16;
47810;PMS5003;33575;52.600;7.318;2023-07-28T03:55:37;17;16;
47810;PMS5003;33575;52.600;7.318;2023-07-28T03:58:07;19;17;
47810;PMS5003;33575;52.600;7.318;2023-07-28T04:00:37;15;14;
47810;PMS5003;33575;52.600;7.318;2023-07-28T04:03:08;15;15;
47810;PMS5003;33575;52.600;7.318;2023-07-28T04:05:38;17;15;
47810;PMS5003;33575;52.600;7.318;2023-07-28T04:08:09;18;15;
47810;PMS5003;33575;52.600;7.318;2023-07-28T04:10:40;18;17;
47810;PMS5003;33575;52.600;7.318;2023-07-28T04:13:10;15;15;
47810;PMS5003;33575;52.600;7.318;2023-07-28T04:15:41;15;14;
47810;PMS5003;33575;52.600;7.318;2023-07-28T04:18:11;18;17;
47810;PMS5003;33575;52.600;7.318;2023-07-28T04:20:41;20;18;
47810;PMS5003;33575;52.600;7.318;2023-07-28T04:23:12;15;14;
47810;PMS5003;33575;52.600;7.318;2023-07-28T04:25:42;18;15;
47810;PMS5003;33575;52.600;7.318;2023-07-28T04:28:13;17;16;
47810;PMS5003;33575;52.600;7.318;2023-07-28T04:30:43;12;11;
47810;PMS5003;33575;52.600;7.318;2023-07-28T04:33:14;24;21;
47810;PMS5003;33575;52.600;7.318;2023-07-28T04:35:44;20;18;
47810;PMS5003;33575;52.600;7.318;2023-07-28T04:38:15;20;18;
47810;PMS5003;33575;52.600;7.318;2023-07-28T04:40:45;17;15;
47810;PMS5003;33575;52.600;7.318;2023-07-28T04:43:15;17;17;
47810;PMS5003;33575;52.600;7.318;2023-07-28T04:45:46;20;17;
47810;PMS5003;33575;52.600;7.318;2023-07-28T04:48:17;19;18;
47810;PMS5003;33575;52.600;7.318;2023-07-28T04:50:47;17;17;
47810;PMS5003;33575;52.600;7.318;2023-07-28T04:53:17;19;16;
47810;PMS5003;33575;52.600;7.318;2023-07-28T04:55:48;20;19;
47810;PMS5003;33575;52.600;7.318;2023-07-28T04:58:18;16;16;
47810;PMS5003;33575;52.600;7.318;2023-07-28T05:00:50;23;20;
47810;PMS5003;33575;52.600;7.318;2023-07-28T05:03:20;18;15;
47810;PMS5003;33575;52.600;7.318;2023-07-28T05:05:50;15;13;
47810;PMS5003;33575;52.600;7.318;2023-07-28T05:08:21;15;13;
47810;PMS5003;33575;52.600;7.318;2023-07-28T05:10:51;14;13;
47810;PMS5003;33575;52.600;7.318;2023-07-28T05:13:22;17;16;
47810;PMS5003;33575;52.600;7.318;2023-07-28T05:15:53;17;17;
47810;PMS5003;33575;52.600;7.318;2023-07-28T05:18:23;18;17;
47810;PMS5003;33575;52.600;7.318;2023-07-28T05:20:54;17;15;
47810;PMS5003;33575;52.600;7.318;2023-07-28T05:23:24;15;14;
47810;PMS5003;33575;52.600;7.318;2023-07-28T05:25:55;18;17;
47810;PMS5003;33575;52.600;7.318;2023-07-28T05:28:25;24;21;
47810;PMS5003;33575;52.600;7.318;2023-07-28T05:33:26;15;14;
47810;PMS5003;33575;52.600;7.318;2023-07-28T05:35:59;15;14;
47810;PMS5003;33575;52.600;7.318;2023-07-28T05:38:26;19;16;
47810;PMS5003;33575;52.600;7.318;2023-07-28T05:40:57;20;19;
47810;PMS5003;33575;52.600;7.318;2023-07-28T05:43:28;24;23;
47810;PMS5003;33575;52.600;7.318;2023-07-28T05:45:59;15;14;
47810;PMS5003;33575;52.600;7.318;2023-07-28T05:48:29;21;20;
47810;PMS5003;33575;52.600;7.318;2023-07-28T05:50:59;19;18;
47810;PMS5003;33575;52.600;7.318;2023-07-28T05:53:30;17;17;
47810;PMS5003;33575;52.600;7.318;2023-07-28T05:56:00;20;17;
47810;PMS5003;33575;52.600;7.318;2023-07-28T05:58:30;18;15;
47810;PMS5003;33575;52.600;7.318;2023-07-28T06:01:01;21;18;
47810;PMS5003;33575;52.600;7.318;2023-07-28T06:03:32;25;23;
47810;PMS5003;33575;52.600;7.318;2023-07-28T06:06:02;22;18;
47810;PMS5003;33575;52.600;7.318;2023-07-28T06:08:33;19;19;
47810;PMS5003;33575;52.600;7.318;2023-07-28T06:11:03;20;18;
47810;PMS5003;33575;52.600;7.318;2023-07-28T06:13:33;20;19;
47810;PMS5003;33575;52.600;7.318;2023-07-28T06:16:04;19;17;
47810;PMS5003;33575;52.600;7.318;2023-07-28T06:18:35;18;15;
47810;PMS5003;33575;52.600;7.318;2023-07-28T06:21:05;20;17;
47810;PMS5003;33575;52.600;7.318;2023-07-28T06:23:35;15;15;
47810;PMS5003;33575;52.600;7.318;2023-07-28T06:26:06;19;18;
47810;PMS5003;33575;52.600;7.318;2023-07-28T06:28:37;15;15;
47810;PMS5003;33575;52.600;7.318;2023-07-28T06:31:07;18;18;
47810;PMS5003;33575;52.600;7.318;2023-07-28T06:33:37;18;17;
47810;PMS5003;33575;52.600;7.318;2023-07-28T06:36:08;18;16;
47810;PMS5003;33575;52.600;7.318;2023-07-28T06:38:39;17;16;
47810;PMS5003;33575;52.600;7.318;2023-07-28T06:41:10;25;18;
47810;PMS5003;33575;52.600;7.318;2023-07-28T06:43:40;16;16;
47810;PMS5003;33575;52.600;7.318;2023-07-28T06:46:11;20;19;
47810;PMS5003;33575;52.600;7.318;2023-07-28T06:48:41;18;17;
47810;PMS5003;33575;52.600;7.318;2023-07-28T06:51:12;14;14;
47810;PMS5003;33575;52.600;7.318;2023-07-28T06:53:42;17;16;
47810;PMS5003;33575;52.600;7.318;2023-07-28T06:56:13;14;14;
47810;PMS5003;33575;52.600;7.318;2023-07-28T06:58:48;18;14;
47810;PMS5003;33575;52.600;7.318;2023-07-28T07:01:14;16;16;
47810;PMS5003;33575;52.600;7.318;2023-07-28T07:03:44;19;18;
47810;PMS5003;33575;52.600;7.318;2023-07-28T07:06:15;15;14;
47810;PMS5003;33575;52.600;7.318;2023-07-28T07:08:45;16;16;
47810;PMS5003;33575;52.600;7.318;2023-07-28T07:11:15;17;15;
47810;PMS5003;33575;52.600;7.318;2023-07-28T07:13:45;17;16;
47810;PMS5003;33575;52.600;7.318;2023-07-28T07:16:21;17;16;
47810;PMS5003;33575;52.600;7.318;2023-07-28T07:18:47;17;15;
47810;PMS5003;33575;52.600;7.318;2023-07-28T07:21:17;14;14;
47810;PMS5003;33575;52.600;7.318;2023-07-28T07:23:48;17;14;
47810;PMS5003;33575;52.600;7.318;2023-07-28T07:26:18;14;14;
47810;PMS5003;33575;52.600;7.318;2023-07-28T07:28:49;19;17;
47810;PMS5003;33575;52.600;7.318;2023-07-28T07:31:19;17;16;
47810;PMS5003;33575;52.600;7.318;2023-07-28T07:33:50;16;14;
47810;PMS5003;33575;52.600;7.318;2023-07-28T07:36:20;15;14;
47810;PMS5003;33575;52.600;7.318;2023-07-28T07:38:51;17;16;
47810;PMS5003;33575;52.600;7.318;2023-07-28T07:41:21;15;14;
47810;PMS5003;33575;52.600;7.318;2023-07-28T07:43:53;18;17;
47810;PMS5003;33575;52.600;7.318;2023-07-28T07:46:23;17;16;
47810;PMS5003;33575;52.600;7.318;2023-07-28T07:48:54;13;13;
47810;PMS5003;33575;52.600;7.318;2023-07-28T07:51:24;19;17;
47810;PMS5003;33575;52.600;7.318;2023-07-28T07:53:55;16;14;
47810;PMS5003;33575;52.600;7.318;2023-07-28T07:56:25;14;13;
47810;PMS5003;33575;52.600;7.318;2023-07-28T07:58:55;16;14;
47810;PMS5003;33575;52.600;7.318;2023-07-28T08:01:26;20;19;
47810;PMS5003;33575;52.600;7.318;2023-07-28T08:03:57;17;14;
47810;PMS5003;33575;52.600;7.318;2023-07-28T08:06:27;20;19;
47810;PMS5003;33575;52.600;7.318;2023-07-28T08:08:58;14;14;
47810;PMS5003;33575;52.600;7.318;2023-07-28T08:11:28;14;13;
47810;PMS5003;33575;52.600;7.318;2023-07-28T08:13:58;19;18;
47810;PMS5003;33575;52.600;7.318;2023-07-28T08:16:29;18;18;
47810;PMS5003;33575;52.600;7.318;2023-07-28T08:18:59;13;13;
47810;PMS5003;33575;52.600;7.318;2023-07-28T08:21:30;16;16;
47810;PMS5003;33575;52.600;7.318;2023-07-28T08:24:00;15;13;
47810;PMS5003;33575;52.600;7.318;2023-07-28T08:26:31;19;18;
47810;PMS5003;33575;52.600;7.318;2023-07-28T08:29:01;29;26;
47810;PMS5003;33575;52.600;7.318;2023-07-28T08:31:33;20;20;
47810;PMS5003;33575;52.600;7.318;2023-07-28T08:34:03;14;14;
47810;PMS5003;33575;52.600;7.318;2023-07-28T08:36:33;16;16;
47810;PMS5003;33575;52.600;7.318;2023-07-28T08:39:03;19;16;
47810;PMS5003;33575;52.600;7.318;2023-07-28T08:41:34;17;17;
47810;PMS5003;33575;52.600;7.318;2023-07-28T08:44:04;17;17;
47810;PMS5003;33575;52.600;7.318;2023-07-28T08:46:34;20;17;
47810;PMS5003;33575;52.600;7.318;2023-07-28T08:49:05;14;13;
47810;PMS5003;33575;52.600;7.318;2023-07-28T08:51:40;20;18;
47810;PMS5003;33575;52.600;7.318;2023-07-28T08:54:06;19;18;
47810;PMS5003;33575;52.600;7.318;2023-07-28T08:56:36;14;14;
47810;PMS5003;33575;52.600;7.318;2023-07-28T08:59:07;15;15;
47810;PMS5003;33575;52.600;7.318;2023-07-28T09:01:38;16;13;
47810;PMS5003;33575;52.600;7.318;2023-07-28T09:04:09;17;15;
47810;PMS5003;33575;52.600;7.318;2023-07-28T09:06:39;14;14;
47810;PMS5003;33575;52.600;7.318;2023-07-28T09:09:09;14;13;
47810;PMS5003;33575;52.600;7.318;2023-07-28T09:11:44;15;12;
47810;PMS5003;33575;52.600;7.318;2023-07-28T09:14:11;15;13;
47810;PMS5003;33575;52.600;7.318;2023-07-28T09:16:40;16;14;
47810;PMS5003;33575;52.600;7.318;2023-07-28T09:19:11;12;12;
47810;PMS5003;33575;52.600;7.318;2023-07-28T09:21:42;13;12;
47810;PMS5003;33575;52.600;7.318;2023-07-28T09:24:12;32;30;
47810;PMS5003;33575;52.600;7.318;2023-07-28T09:26:43;38;38;
47810;PMS5003;33575;52.600;7.318;2023-07-28T09:29:13;47;46;
47810;PMS5003;33575;52.600;7.318;2023-07-28T09:31:44;18;17;
47810;PMS5003;33575;52.600;7.318;2023-07-28T09:36:45;57;57;
47810;PMS5003;33575;52.600;7.318;2023-07-28T09:39:16;24;23;
47810;PMS5003;33575;52.600;7.318;2023-07-28T09:41:46;28;28;
47810;PMS5003;33575;52.600;7.318;2023-07-28T09:44:16;26;24;
47810;PMS5003;33575;52.600;7.318;2023-07-28T09:46:49;20;20;
47810;PMS5003;33575;52.600;7.318;2023-07-28T09:49:19;16;16;
47810;PMS5003;33575;52.600;7.318;2023-07-28T09:51:48;24;24;
47810;PMS5003;33575;52.600;7.318;2023-07-28T09:54:20;16;16;
47810;PMS5003;33575;52.600;7.318;2023-07-28T09:56:48;17;16;
47810;PMS5003;33575;52.600;7.318;2023-07-28T09:59:19;12;12;
47810;PMS5003;33575;52.600;7.318;2023-07-28T10:01:49;12;12;
47810;PMS5003;33575;52.600;7.318;2023-07-28T10:04:20;9;8;
47810;PMS5003;33575;52.600;7.318;2023-07-28T10:06:50;9;9;
47810;PMS5003;33575;52.600;7.318;2023-07-28T10:09:20;11;9;
47810;PMS5003;33575;52.600;7.318;2023-07-28T10:11:51;10;10;
47810;PMS5003;33575;52.600;7.318;2023-07-28T10:16:51;9;8;
47810;PMS5003;33575;52.600;7.318;2023-07-28T10:19:21;9;8;
47810;PMS5003;33575;52.600;7.318;2023-07-28T10:24:23;8;8;
47810;PMS5003;33575;52.600;7.318;2023-07-28T10:26:52;6;6;
47810;PMS5003;33575;52.600;7.318;2023-07-28T10:29:22;7;7;
47810;PMS5003;33575;52.600;7.318;2023-07-28T10:31:53;7;6;
47810;PMS5003;33575;52.600;7.318;2023-07-28T10:34:22;8;6;
47810;PMS5003;33575;52.600;7.318;2023-07-28T10:36:56;3;3;
47810;PMS5003;33575;52.600;7.318;2023-07-28T10:39:23;8;8;
47810;PMS5003;33575;52.600;7.318;2023-07-28T10:42:00;9;9;
47810;PMS5003;33575;52.600;7.318;2023-07-28T10:44:24;8;8;
47810;PMS5003;33575;52.600;7.318;2023-07-28T10:46:54;8;8;
47810;PMS5003;33575;52.600;7.318;2023-07-28T10:49:25;7;6;
47810;PMS5003;33575;52.600;7.318;2023-07-28T10:51:55;8;8;
47810;PMS5003;33575;52.600;7.318;2023-07-28T10:54:25;8;7;
47810;PMS5003;33575;52.600;7.318;2023-07-28T10:56:55;10;9;
47810;PMS5003;33575;52.600;7.318;2023-07-28T10:59:25;7;7;
47810;PMS5003;33575;52.600;7.318;2023-07-28T11:01:55;10;9;
47810;PMS5003;33575;52.600;7.318;2023-07-28T11:04:26;5;5;
47810;PMS5003;33575;52.600;7.318;2023-07-28T11:06:56;8;8;
47810;PMS5003;33575;52.600;7.318;2023-07-28T11:09:26;7;7;
47810;PMS5003;33575;52.600;7.318;2023-07-28T11:11:57;8;8;
47810;PMS5003;33575;52.600;7.318;2023-07-28T11:14:27;12;9;
47810;PMS5003;33575;52.600;7.318;2023-07-28T11:16:57;9;9;
47810;PMS5003;33575;52.600;7.318;2023-07-28T11:19:28;10;10;
47810;PMS5003;33575;52.600;7.318;2023-07-28T11:21:58;11;10;
47810;PMS5003;33575;52.600;7.318;2023-07-28T11:24:28;11;11;
47810;PMS5003;33575;52.600;7.318;2023-07-28T11:26:59;10;10;
47810;PMS5003;33575;52.600;7.318;2023-07-28T11:29:29;10;9;
47810;PMS5003;33575;52.600;7.318;2023-07-28T11:32:00;12;10;
47810;PMS5003;33575;52.600;7.318;2023-07-28T11:34:33;10;9;
47810;PMS5003;33575;52.600;7.318;2023-07-28T11:36:59;14;13;
47810;PMS5003;33575;52.600;7.318;2023-07-28T11:39:29;15;13;
47810;PMS5003;33575;52.600;7.318;2023-07-28T11:42:00;8;8;
47810;PMS5003;33575;52.600;7.318;2023-07-28T11:44:30;11;10;
47810;PMS5003;33575;52.600;7.318;2023-07-28T11:47:04;11;11;
47810;PMS5003;33575;52.600;7.318;2023-07-28T11:49:31;14;13;
47810;PMS5003;33575;52.600;7.318;2023-07-28T11:52:01;12;10;
47810;PMS5003;33575;52.600;7.318;2023-07-28T11:54:32;15;14;
47810;PMS5003;33575;52.600;7.318;2023-07-28T11:57:02;15;13;
47810;PMS5003;33575;52.600;7.318;2023-07-28T11:59:32;17;16;
47810;PMS5003;33575;52.600;7.318;2023-07-28T12:02:06;16;16;
47810;PMS5003;33575;52.600;7.318;2023-07-28T12:04:37;10;10;
47810;PMS5003;33575;52.600;7.318;2023-07-28T12:07:05;14;14;
47810;PMS5003;33575;52.600;7.318;2023-07-28T12:12:05;11;11;
47810;PMS5003;33575;52.600;7.318;2023-07-28T12:14:38;13;13;
47810;PMS5003;33575;52.600;7.318;2023-07-28T12:17:11;12;11;
47810;PMS5003;33575;52.600;7.318;2023-07-28T12:19:40;11;11;
47810;PMS5003;33575;52.600;7.318;2023-07-28T12:22:05;14;14;
47810;PMS5003;33575;52.600;7.318;2023-07-28T12:24:36;12;11;
47810;PMS5003;33575;52.600;7.318;2023-07-28T12:27:11;12;12;
47810;PMS5003;33575;52.600;7.318;2023-07-28T12:29:37;13;12;
47810;PMS5003;33575;52.600;7.318;2023-07-28T12:32:07;12;11;
47810;PMS5003;33575;52.600;7.318;2023-07-28T12:34:41;12;12;
47810;PMS5003;33575;52.600;7.318;2023-07-28T12:37:12;15;14;
47810;PMS5003;33575;52.600;7.318;2023-07-28T12:39:42;13;13;
47810;PMS5003;33575;52.600;7.318;2023-07-28T12:42:12;12;11;
47810;PMS5003;33575;52.600;7.318;2023-07-28T12:44:42;11;11;
47810;PMS5003;33575;52.600;7.318;2023-07-28T12:47:10;13;12;
47810;PMS5003;33575;52.600;7.318;2023-07-28T12:49:45;13;11;
47810;PMS5003;33575;52.600;7.318;2023-07-28T12:52:16;17;14;
47810;PMS5003;33575;52.600;7.318;2023-07-28T12:54:44;13;10;
47810;PMS5003;33575;52.600;7.318;2023-07-28T12:57:12;12;11;
47810;PMS5003;33575;52.600;7.318;2023-07-28T12:59:45;11;11;
47810;PMS5003;33575;52.600;7.318;2023-07-28T13:02:13;15;13;
47810;PMS5003;33575;52.600;7.318;2023-07-28T13:04:43;12;12;
47810;PMS5003;33575;52.600;7.318;2023-07-28T13:07:16;13;12;
47810;PMS5003;33575;52.600;7.318;2023-07-28T13:09:44;11;11;
47810;PMS5003;33575;52.600;7.318;2023-07-28T13:12:17;12;12;
47810;PMS5003;33575;52.600;7.318;2023-07-28T13:14:44;13;12;
47810;PMS5003;33575;52.600;7.318;2023-07-28T13:17:14;14;13;
47810;PMS5003;33575;52.600;7.318;2023-07-28T13:19:44;9;9;
47810;PMS5003;33575;52.600;7.318;2023-07-28T13:22:14;13;13;
47810;PMS5003;33575;52.600;7.318;2023-07-28T13:24:45;11;10;
47810;PMS5003;33575;52.600;7.318;2023-07-28T13:27:16;10;10;
47810;PMS5003;33575;52.600;7.318;2023-07-28T13:29:46;14;14;
47810;PMS5003;33575;52.600;7.318;2023-07-28T13:32:17;14;14;
47810;PMS5003;33575;52.600;7.318;2023-07-28T13:34:46;13;12;
47810;PMS5003;33575;52.600;7.318;2023-07-28T13:37:16;18;17;
47810;PMS5003;33575;52.600;7.318;2023-07-28T13:39:47;14;14;
47810;PMS5003;33575;52.600;7.318;2023-07-28T13:42:17;18;18;
47810;PMS5003;33575;52.600;7.318;2023-07-28T13:44:52;17;16;
47810;PMS5003;33575;52.600;7.318;2023-07-28T13:47:18;12;12;
47810;PMS5003;33575;52.600;7.318;2023-07-28T13:49:51;13;13;
47810;PMS5003;33575;52.600;7.318;2023-07-28T13:52:22;17;16;
47810;PMS5003;33575;52.600;7.318;2023-07-28T13:54:53;15;13;
47810;PMS5003;33575;52.600;7.318;2023-07-28T13:57:20;13;13;
47810;PMS5003;33575;52.600;7.318;2023-07-28T13:59:51;14;13;
47810;PMS5003;33575;52.600;7.318;2023-07-28T14:02:21;19;17;
47810;PMS5003;33575;52.600;7.318;2023-07-28T14:04:52;11;11;
47810;PMS5003;33575;52.600;7.318;2023-07-28T14:07:22;13;13;
47810;PMS5003;33575;52.600;7.318;2023-07-28T14:09:52;12;12;
47810;PMS5003;33575;52.600;7.318;2023-07-28T14:12:22;12;11;
47810;PMS5003;33575;52.600;7.318;2023-07-28T14:14:53;12;12;
47810;PMS5003;33575;52.600;7.318;2023-07-28T14:17:23;12;12;
47810;PMS5003;33575;52.600;7.318;2023-07-28T14:19:53;10;10;
47810;PMS5003;33575;52.600;7.318;2023-07-28T14:22:23;9;9;
47810;PMS5003;33575;52.600;7.318;2023-07-28T14:24:53;9;9;
47810;PMS5003;33575;52.600;7.318;2023-07-28T14:27:23;9;9;
47810;PMS5003;33575;52.600;7.318;2023-07-28T14:29:53;8;8;
47810;PMS5003;33575;52.600;7.318;2023-07-28T14:32:23;8;8;
47810;PMS5003;33575;52.600;7.318;2023-07-28T14:34:54;10;9;
47810;PMS5003;33575;52.600;7.318;2023-07-28T14:37:24;8;8;
47810;PMS5003;33575;52.600;7.318;2023-07-28T14:39:54;7;7;
47810;PMS5003;33575;52.600;7.318;2023-07-28T14:42:24;7;7;
47810;PMS5003;33575;52.600;7.318;2023-07-28T14:44:54;8;8;
47810;PMS5003;33575;52.600;7.318;2023-07-28T14:47:24;11;10;
47810;PMS5003;33575;52.600;7.318;2023-07-28T14:49:54;8;8;
47810;PMS5003;33575;52.600;7.318;2023-07-28T14:52:24;9;9;
47810;PMS5003;33575;52.600;7.318;2023-07-28T14:54:55;8;7;
47810;PMS5003;33575;52.600;7.318;2023-07-28T14:57:29;9;9;
47810;PMS5003;33575;52.600;7.318;2023-07-28T14:59:55;10;9;
47810;PMS5003;33575;52.600;7.318;2023-07-28T15:02:25;7;7;
47810;PMS5003;33575;52.600;7.318;2023-07-28T15:04:55;8;8;
47810;PMS5003;33575;52.600;7.318;2023-07-28T15:07:25;9;8;
47810;PMS5003;33575;52.600;7.318;2023-07-28T15:09:55;8;8;
47810;PMS5003;33575;52.600;7.318;2023-07-28T15:12:25;11;9;
47810;PMS5003;33575;52.600;7.318;2023-07-28T15:14:55;8;8;
47810;PMS5003;33575;52.600;7.318;2023-07-28T15:17:25;8;8;
47810;PMS5003;33575;52.600;7.318;2023-07-28T15:19:55;10;9;
47810;PMS5003;33575;52.600;7.318;2023-07-28T15:22:25;11;11;
47810;PMS5003;33575;52.600;7.318;2023-07-28T15:24:56;12;11;
47810;PMS5003;33575;52.600;7.318;2023-07-28T15:27:26;11;11;
47810;PMS5003;33575;52.600;7.318;2023-07-28T15:29:56;10;9;
47810;PMS5003;33575;52.600;7.318;2023-07-28T15:32:26;9;8;
47810;PMS5003;33575;52.600;7.318;2023-07-28T15:34:56;7;7;
47810;PMS5003;33575;52.600;7.318;2023-07-28T15:37:26;10;10;
47810;PMS5003;33575;52.600;7.318;2023-07-28T15:39:56;9;9;
47810;PMS5003;33575;52.600;7.318;2023-07-28T15:42:26;8;8;
47810;PMS5003;33575;52.600;7.318;2023-07-28T15:44:57;9;9;
47810;PMS5003;33575;52.600;7.318;2023-07-28T15:47:27;18;14;
47810;PMS5003;33575;52.600;7.318;2023-07-28T15:49:57;13;11;
47810;PMS5003;33575;52.600;7.318;2023-07-28T15:52:28;16;15;
47810;PMS5003;33575;52.600;7.318;2023-07-28T15:54:58;17;17;
47810;PMS5003;33575;52.600;7.318;2023-07-28T15:57:29;14;14;
47810;PMS5003;33575;52.600;7.318;2023-07-28T16:00:00;15;15;
47810;PMS5003;33575;52.600;7.318;2023-07-28T16:02:31;18;18;
47810;PMS5003;33575;52.600;7.318;2023-07-28T16:05:01;18;18;
47810;PMS5003;33575;52.600;7.318;2023-07-28T16:07:31;17;16;
47810;PMS5003;33575;52.600;7.318;2023-07-28T16:10:02;17;17;
47810;PMS5003;33575;52.600;7.318;2023-07-28T16:12:32;16;14;
47810;PMS5003;33575;52.600;7.318;2023-07-28T16:15:03;17;17;
47810;PMS5003;33575;52.600;7.318;2023-07-28T16:17:34;22;19;
47810;PMS5003;33575;52.600;7.318;2023-07-28T16:20:05;19;18;
47810;PMS5003;33575;52.600;7.318;2023-07-28T16:22:35;15;15;
47810;PMS5003;33575;52.600;7.318;2023-07-28T16:25:06;17;17;
47810;PMS5003;33575;52.600;7.318;2023-07-28T16:27:36;20;18;
47810;PMS5003;33575;52.600;7.318;2023-07-28T16:30:07;23;22;
47810;PMS5003;33575;52.600;7.318;2023-07-28T16:32:37;17;17;
47810;PMS5003;33575;52.600;7.318;2023-07-28T16:35:07;16;15;
47810;PMS5003;33575;52.600;7.318;2023-07-28T16:37:37;15;14;
47810;PMS5003;33575;52.600;7.318;2023-07-28T16:40:08;17;14;
47810;PMS5003;33575;52.600;7.318;2023-07-28T16:42:39;14;13;
47810;PMS5003;33575;52.600;7.318;2023-07-28T16:45:09;13;13;
47810;PMS5003;33575;52.600;7.318;2023-07-28T16:47:40;13;12;
47810;PMS5003;33575;52.600;7.318;2023-07-28T16:50:10;10;10;
47810;PMS5003;33575;52.600;7.318;2023-07-28T16:52:40;14;13;
47810;PMS5003;33575;52.600;7.318;2023-07-28T16:55:11;13;12;
47810;PMS5003;33575;52.600;7.318;2023-07-28T16:57:41;11;11;